createdAt,value
2023-05-19T00:00:33.368Z,5.30
2023-05-19T00:02:00.513Z,4.90
2023-05-19T00:02:34.379Z,5.30
2023-05-19T00:03:09.301Z,5.70
2023-05-19T00:03:54.406Z,5.50
2023-05-19T00:04:28.155Z,5.30
2023-05-19T00:05:02.395Z,5.00
2023-05-19T00:05:40.919Z,5.70
2023-05-19T00:06:14.886Z,5.20
2023-05-19T00:06:51.610Z,5.00
2023-05-19T00:07:29.284Z,5.20
2023-05-19T00:08:04.911Z,5.50
2023-05-19T00:08:39.203Z,5.70
2023-05-19T00:09:12.911Z,5.70
2023-05-19T00:09:46.626Z,5.80
2023-05-19T00:10:22.423Z,5.60
2023-05-19T00:11:00.201Z,6.00
2023-05-19T00:11:36.888Z,5.40
2023-05-19T00:12:10.992Z,5.40
2023-05-19T00:12:45.305Z,5.50
2023-05-19T00:13:19.418Z,6.10
2023-05-19T00:13:54.460Z,5.90
2023-05-19T00:14:29.253Z,5.60
2023-05-19T00:15:02.857Z,6.00
2023-05-19T00:15:36.784Z,5.80
2023-05-19T00:16:10.950Z,6.10
2023-05-19T00:16:44.491Z,5.90
2023-05-19T00:17:18.175Z,5.60
2023-05-19T00:17:52.568Z,6.00
2023-05-19T00:18:26.791Z,6.00
2023-05-19T00:19:01.973Z,5.80
2023-05-19T00:19:35.460Z,6.50
2023-05-19T00:20:09.220Z,5.70
2023-05-19T00:20:43.246Z,6.30
2023-05-19T00:21:17.985Z,6.20
2023-05-19T00:21:51.519Z,6.60
2023-05-19T00:22:24.890Z,6.00
2023-05-19T00:22:58.153Z,6.00
2023-05-19T00:23:31.440Z,6.20
2023-05-19T00:24:05.877Z,6.00
2023-05-19T00:24:39.181Z,6.00
2023-05-19T00:25:12.571Z,6.10
2023-05-19T00:25:45.799Z,6.20
2023-05-19T00:26:19.245Z,6.40
2023-05-19T00:26:58.236Z,5.90
2023-05-19T00:27:31.593Z,6.10
2023-05-19T00:28:05.007Z,6.00
2023-05-19T00:28:38.256Z,6.00
2023-05-19T00:29:11.754Z,6.30
2023-05-19T00:29:44.982Z,6.50
2023-05-19T00:30:18.550Z,5.90
2023-05-19T00:30:52.065Z,6.20
2023-05-19T00:31:25.386Z,6.30
2023-05-19T00:31:58.799Z,6.10
2023-05-19T00:32:32.119Z,6.30
2023-05-19T00:33:05.472Z,6.30
2023-05-19T00:33:38.793Z,6.60
2023-05-19T00:34:12.051Z,6.30
2023-05-19T00:34:47.993Z,6.20
2023-05-19T00:35:21.927Z,6.50
2023-05-19T00:35:55.863Z,6.30
2023-05-19T00:36:29.440Z,6.10
2023-05-19T00:37:02.750Z,5.80
2023-05-19T00:37:36.109Z,6.30
2023-05-19T00:38:09.400Z,6.10
2023-05-19T00:38:42.748Z,6.20
2023-05-19T00:39:16.024Z,6.10
2023-05-19T00:39:49.568Z,5.90
2023-05-19T00:40:24.822Z,6.30
2023-05-19T00:40:59.961Z,6.00
2023-05-19T00:41:33.508Z,6.10
2023-05-19T00:42:07.007Z,6.00
2023-05-19T00:42:41.055Z,6.20
2023-05-19T00:43:14.640Z,6.00
2023-05-19T00:43:47.932Z,6.40
2023-05-19T00:44:21.371Z,6.50
2023-05-19T00:44:54.904Z,5.80
2023-05-19T00:45:29.111Z,6.10
2023-05-19T00:46:03.343Z,6.10
2023-05-19T00:46:38.148Z,6.20
2023-05-19T00:47:11.562Z,6.50
2023-05-19T00:47:45.119Z,6.00
2023-05-19T00:48:18.857Z,6.00
2023-05-19T00:48:52.263Z,6.40
2023-05-19T00:49:25.848Z,6.70
2023-05-19T00:49:59.743Z,6.20
2023-05-19T00:50:33.646Z,6.60
2023-05-19T00:51:07.503Z,6.10
2023-05-19T00:51:41.541Z,6.30
2023-05-19T00:52:15.459Z,6.80
2023-05-19T00:52:49.061Z,5.70
2023-05-19T00:53:25.733Z,6.50
2023-05-19T00:53:59.301Z,6.20
2023-05-19T00:54:34.194Z,6.20
2023-05-19T00:55:09.312Z,5.90
2023-05-19T00:55:43.131Z,6.60
2023-05-19T00:56:18.737Z,6.00
2023-05-19T00:56:52.103Z,5.90
2023-05-19T00:57:27.196Z,6.50
2023-05-19T00:58:00.960Z,6.30
2023-05-19T00:58:36.396Z,6.30
2023-05-19T00:59:12.232Z,6.20
2023-05-19T00:59:45.950Z,6.40
2023-05-19T01:00:19.275Z,5.80
2023-05-19T01:00:53.486Z,6.20
2023-05-19T01:01:28.051Z,6.60
2023-05-19T01:02:03.113Z,6.10
2023-05-19T01:02:40.210Z,6.20
2023-05-19T01:03:15.381Z,5.80
2023-05-19T01:03:49.451Z,6.10
2023-05-19T01:04:25.797Z,6.10
2023-05-19T01:05:00.119Z,6.40
2023-05-19T01:05:33.628Z,6.30
2023-05-19T01:06:07.638Z,6.00
2023-05-19T01:06:41.103Z,6.00
2023-05-19T01:07:15.607Z,5.90
2023-05-19T01:07:53.728Z,6.10
2023-05-19T01:08:27.902Z,6.30
2023-05-19T01:09:01.391Z,6.50
2023-05-19T01:09:35.045Z,6.60
2023-05-19T01:10:09.230Z,6.30
2023-05-19T01:10:42.682Z,6.30
2023-05-19T01:11:16.095Z,6.20
2023-05-19T01:11:50.507Z,6.30
2023-05-19T01:12:24.117Z,6.30
2023-05-19T01:12:57.620Z,6.10
2023-05-19T01:13:31.848Z,6.30
2023-05-19T01:14:05.321Z,6.20
2023-05-19T01:14:38.692Z,5.80
2023-05-19T01:15:12.958Z,6.50
2023-05-19T01:15:56.079Z,6.20
2023-05-19T01:16:59.940Z,6.00
2023-05-19T01:17:35.996Z,5.90
2023-05-19T01:18:14.394Z,6.10
2023-05-19T01:18:56.422Z,5.70
2023-05-19T01:19:47.152Z,5.90
2023-05-19T01:20:32.820Z,5.70
2023-05-19T01:21:39.137Z,6.00
2023-05-19T01:22:50.636Z,6.00
2023-05-19T01:24:01.713Z,5.80
2023-05-19T01:25:29.996Z,6.10
2023-05-19T01:26:41.565Z,6.10
2023-05-19T01:27:24.291Z,6.10
2023-05-19T01:28:16.289Z,6.40
2023-05-19T01:29:16.928Z,6.50
2023-05-19T01:30:09.023Z,5.90
2023-05-19T01:30:49.314Z,5.90
2023-05-19T01:31:25.722Z,6.30
2023-05-19T01:32:01.325Z,6.20
2023-05-19T01:32:36.268Z,6.70
2023-05-19T01:33:14.577Z,6.10
2023-05-19T01:33:49.598Z,6.20
2023-05-19T01:34:24.475Z,6.20
2023-05-19T01:34:59.110Z,6.30
2023-05-19T01:35:35.048Z,6.60
2023-05-19T01:36:08.968Z,6.50
2023-05-19T01:36:45.205Z,6.50
2023-05-19T01:37:21.890Z,6.70
2023-05-19T01:37:58.562Z,6.10
2023-05-19T01:38:34.379Z,6.30
2023-05-19T01:39:08.326Z,6.50
2023-05-19T01:39:43.052Z,6.90
2023-05-19T01:40:16.734Z,6.90
2023-05-19T01:40:51.905Z,6.50
2023-05-19T01:41:26.673Z,6.10
2023-05-19T01:42:01.859Z,6.50
2023-05-19T01:42:38.175Z,6.60
2023-05-19T01:43:19.095Z,6.40
2023-05-19T01:43:52.608Z,6.50
2023-05-19T01:44:26.238Z,6.70
2023-05-19T01:45:00.354Z,6.90
2023-05-19T01:45:34.575Z,7.00
2023-05-19T01:46:08.684Z,6.80
2023-05-19T01:46:42.435Z,6.80
2023-05-19T01:47:16.344Z,7.00
2023-05-19T01:47:53.591Z,6.50
2023-05-19T01:48:27.809Z,7.20
2023-05-19T01:51:18.106Z,6.70
2023-05-19T01:51:53.264Z,6.50
2023-05-19T01:52:28.686Z,6.70
2023-05-19T01:53:02.304Z,7.10
2023-05-19T01:53:35.910Z,7.20
2023-05-19T01:54:09.171Z,7.50
2023-05-19T01:54:42.634Z,7.20
2023-05-19T01:55:16.165Z,7.30
2023-05-19T01:55:54.150Z,7.00
2023-05-19T01:56:56.169Z,7.50
2023-05-19T01:58:14.366Z,7.20
2023-05-19T01:58:53.581Z,6.90
2023-05-19T01:59:45.502Z,6.80
2023-05-19T02:00:29.549Z,6.90
2023-05-19T02:01:15.247Z,7.50
2023-05-19T02:01:58.077Z,7.40
2023-05-19T02:03:06.601Z,7.50
2023-05-19T02:03:48.749Z,7.30
2023-05-19T02:04:40.108Z,7.00
2023-05-19T02:05:28.913Z,7.30
2023-05-19T02:06:35.199Z,7.50
2023-05-19T02:07:45.289Z,7.20
2023-05-19T02:08:34.697Z,6.70
2023-05-19T02:09:16.425Z,7.00
2023-05-19T02:10:07.058Z,7.60
2023-05-19T02:10:45.887Z,6.90
2023-05-19T02:11:38.228Z,7.50
2023-05-19T02:12:24.582Z,7.20
2023-05-19T02:13:01.652Z,7.00
2023-05-19T02:13:41.135Z,7.80
2023-05-19T02:14:20.877Z,7.50
2023-05-19T02:15:02.774Z,7.30
2023-05-19T02:15:42.326Z,7.70
2023-05-19T02:16:17.795Z,8.50
2023-05-19T02:16:52.729Z,8.10
2023-05-19T02:17:33.299Z,7.50
2023-05-19T02:18:10.528Z,7.90
2023-05-19T02:18:45.660Z,7.80
2023-05-19T02:19:24.695Z,7.90
2023-05-19T02:19:58.148Z,7.80
2023-05-19T02:20:32.304Z,8.30
2023-05-19T02:21:05.853Z,8.60
2023-05-19T02:21:39.090Z,8.40
2023-05-19T02:22:12.445Z,8.10
2023-05-19T02:22:46.076Z,8.00
2023-05-19T02:23:19.711Z,8.50
2023-05-19T02:23:53.047Z,7.80
2023-05-19T02:24:26.639Z,7.70
2023-05-19T02:25:00.404Z,8.10
2023-05-19T02:25:34.310Z,8.00
2023-05-19T02:26:08.854Z,7.70
2023-05-19T02:26:42.411Z,8.10
2023-05-19T02:27:15.584Z,7.90
2023-05-19T02:27:49.768Z,7.80
2023-05-19T02:28:23.309Z,7.90
2023-05-19T02:28:56.491Z,8.20
2023-05-19T02:29:31.103Z,8.40
2023-05-19T02:30:05.851Z,7.70
2023-05-19T02:30:39.166Z,7.70
2023-05-19T02:31:12.482Z,8.40
2023-05-19T02:31:45.904Z,8.00
2023-05-19T02:32:20.894Z,7.60
2023-05-19T02:32:54.563Z,7.40
2023-05-19T02:33:27.928Z,7.40
2023-05-19T02:34:01.350Z,7.90
2023-05-19T02:34:34.974Z,8.70
2023-05-19T02:35:11.590Z,8.00
2023-05-19T02:35:46.215Z,7.50
2023-05-19T02:36:21.109Z,7.40
2023-05-19T02:36:54.418Z,7.50
2023-05-19T02:37:28.734Z,7.20
2023-05-19T02:38:03.043Z,7.80
2023-05-19T02:38:36.584Z,7.50
2023-05-19T02:39:13.181Z,7.70
2023-05-19T02:39:46.430Z,7.20
2023-05-19T02:40:20.358Z,7.20
2023-05-19T02:40:53.689Z,8.10
2023-05-19T02:41:27.041Z,7.50
2023-05-19T02:42:00.690Z,7.20
2023-05-19T02:42:33.969Z,7.20
2023-05-19T02:43:08.358Z,7.40
2023-05-19T02:43:41.911Z,7.50
2023-05-19T02:44:15.275Z,7.60
2023-05-19T02:44:49.036Z,7.60
2023-05-19T02:45:22.493Z,7.70
2023-05-19T02:45:55.872Z,7.60
2023-05-19T02:46:29.168Z,7.00
2023-05-19T02:47:02.616Z,7.30
2023-05-19T02:47:37.174Z,7.50
2023-05-19T02:48:10.912Z,7.20
2023-05-19T02:48:44.314Z,7.30
2023-05-19T02:49:17.618Z,7.20
2023-05-19T02:49:51.019Z,7.40
2023-05-19T02:50:24.631Z,7.30
2023-05-19T02:50:57.934Z,7.00
2023-05-19T02:51:31.330Z,7.30
2023-05-19T02:52:06.016Z,7.70
2023-05-19T02:52:39.369Z,7.60
2023-05-19T02:53:12.688Z,7.60
2023-05-19T02:53:46.160Z,7.40
2023-05-19T02:54:19.448Z,7.90
2023-05-19T02:54:52.749Z,7.40
2023-05-19T02:55:26.116Z,7.20
2023-05-19T02:55:59.374Z,7.10
2023-05-19T02:56:32.595Z,7.60
2023-05-19T02:57:06.929Z,8.00
2023-05-19T02:57:40.163Z,7.90
2023-05-19T02:58:13.452Z,7.70
2023-05-19T02:58:46.864Z,7.30
2023-05-19T02:59:20.182Z,8.20
2023-05-19T02:59:53.444Z,7.30
2023-05-19T03:00:26.779Z,7.90
2023-05-19T03:01:00.161Z,7.50
2023-05-19T03:01:33.941Z,7.50
2023-05-19T03:02:07.497Z,7.50
2023-05-19T03:02:41.686Z,7.80
2023-05-19T03:03:15.147Z,8.00
2023-05-19T03:03:48.665Z,7.20
2023-05-19T03:04:22.286Z,7.30
2023-05-19T03:04:55.737Z,7.40
2023-05-19T03:05:30.596Z,7.60
2023-05-19T03:06:05.238Z,7.30
2023-05-19T03:06:39.007Z,7.30
2023-05-19T03:07:16.549Z,7.40
2023-05-19T03:07:50.254Z,6.90
2023-05-19T03:08:23.646Z,7.10
2023-05-19T03:08:56.875Z,7.60
2023-05-19T03:09:30.345Z,7.40
2023-05-19T03:10:04.414Z,7.10
2023-05-19T03:10:37.778Z,7.50
2023-05-19T03:11:11.072Z,7.40
2023-05-19T03:11:44.420Z,7.10
2023-05-19T03:12:17.768Z,7.80
2023-05-19T03:12:51.145Z,7.20
2023-05-19T03:13:24.476Z,7.30
2023-05-19T03:13:58.766Z,7.30
2023-05-19T03:14:33.760Z,7.80
2023-05-19T03:15:07.865Z,7.30
2023-05-19T03:15:42.987Z,7.20
2023-05-19T03:16:16.305Z,6.80
2023-05-19T03:16:49.950Z,6.90
2023-05-19T03:17:23.402Z,7.40
2023-05-19T03:17:57.339Z,7.20
2023-05-19T03:18:30.936Z,6.90
2023-05-19T03:19:04.331Z,7.40
2023-05-19T03:19:37.736Z,7.40
2023-05-19T03:20:11.360Z,7.60
2023-05-19T03:20:44.998Z,7.50
2023-05-19T03:21:18.280Z,8.10
2023-05-19T03:21:51.661Z,7.70
2023-05-19T03:22:24.908Z,7.50
2023-05-19T03:22:58.400Z,7.60
2023-05-19T03:23:31.826Z,7.40
2023-05-19T03:24:05.370Z,7.50
2023-05-19T03:24:39.870Z,7.60
2023-05-19T03:25:14.582Z,7.20
2023-05-19T03:25:48.524Z,7.40
2023-05-19T03:26:23.234Z,7.30
2023-05-19T03:26:56.629Z,7.10
2023-05-19T03:27:37.386Z,7.70
2023-05-19T03:28:30.198Z,7.40
2023-05-19T03:29:13.105Z,7.30
2023-05-19T03:29:46.342Z,7.70
2023-05-19T03:30:20.355Z,7.40
2023-05-19T03:31:09.128Z,7.40
2023-05-19T03:31:44.889Z,7.10
2023-05-19T03:32:18.673Z,7.50
2023-05-19T03:32:52.850Z,7.10
2023-05-19T03:33:28.244Z,7.30
2023-05-19T03:34:02.140Z,7.20
2023-05-19T03:34:35.655Z,7.40
2023-05-19T03:35:09.341Z,7.50
2023-05-19T03:35:44.595Z,7.70
2023-05-19T03:36:18.337Z,7.20
2023-05-19T03:36:51.683Z,7.40
2023-05-19T03:37:25.128Z,7.30
2023-05-19T03:37:58.505Z,7.40
2023-05-19T03:38:32.233Z,7.20
2023-05-19T03:39:07.197Z,7.20
2023-05-19T03:39:40.694Z,7.70
2023-05-19T03:40:14.458Z,7.10
2023-05-19T03:40:48.870Z,7.60
2023-05-19T03:41:22.514Z,7.00
2023-05-19T03:41:56.524Z,7.00
2023-05-19T03:42:30.038Z,6.90
2023-05-19T03:43:03.612Z,7.00
2023-05-19T03:43:37.501Z,7.50
2023-05-19T03:44:12.019Z,6.80
2023-05-19T03:44:45.866Z,7.30
2023-05-19T03:45:19.659Z,6.90
2023-05-19T03:45:54.452Z,7.10
2023-05-19T03:46:53.827Z,6.80
2023-05-19T03:47:47.651Z,6.80
2023-05-19T03:48:51.678Z,7.10
2023-05-19T03:49:43.342Z,7.20
2023-05-19T03:50:29.371Z,7.30
2023-05-19T03:51:09.239Z,6.80
2023-05-19T03:51:43.344Z,7.30
2023-05-19T03:52:28.279Z,7.30
2023-05-19T03:53:06.838Z,7.20
2023-05-19T03:53:45.829Z,7.30
2023-05-19T03:54:19.285Z,7.50
2023-05-19T03:54:53.149Z,6.80
2023-05-19T03:55:30.075Z,7.70
2023-05-19T03:56:03.783Z,6.90
2023-05-19T03:56:39.964Z,7.10
2023-05-19T03:57:15.210Z,7.10
2023-05-19T03:57:48.948Z,7.60
2023-05-19T03:58:22.422Z,7.00
2023-05-19T03:58:55.675Z,6.70
2023-05-19T03:59:28.954Z,7.20
2023-05-19T04:00:03.096Z,7.50
2023-05-19T04:00:45.366Z,7.20
2023-05-19T04:01:18.748Z,7.30
2023-05-19T04:01:52.989Z,7.30
2023-05-19T04:02:26.480Z,7.10
2023-05-19T04:03:00.754Z,7.60
2023-05-19T04:03:34.302Z,7.30
2023-05-19T04:04:08.551Z,7.10
2023-05-19T04:04:42.412Z,7.50
2023-05-19T04:05:17.547Z,7.70
2023-05-19T04:05:51.949Z,7.10
2023-05-19T04:06:25.522Z,7.30
2023-05-19T04:07:03.969Z,7.30
2023-05-19T04:07:37.348Z,7.20
2023-05-19T04:08:10.653Z,7.30
2023-05-19T04:08:44.524Z,7.40
2023-05-19T04:09:19.797Z,7.60
2023-05-19T04:09:53.199Z,7.50
2023-05-19T04:10:26.978Z,7.10
2023-05-19T04:11:01.688Z,7.40
2023-05-19T04:11:36.859Z,7.60
2023-05-19T04:12:10.183Z,7.00
2023-05-19T04:12:43.523Z,7.20
2023-05-19T04:13:16.816Z,7.40
2023-05-19T04:13:50.098Z,7.20
2023-05-19T04:14:23.863Z,7.60
2023-05-19T04:14:57.132Z,7.20
2023-05-19T04:15:31.313Z,7.40
2023-05-19T04:16:05.059Z,7.00
2023-05-19T04:16:38.615Z,7.40
2023-05-19T04:17:12.199Z,7.50
2023-05-19T04:17:46.256Z,7.80
2023-05-19T04:18:19.656Z,7.80
2023-05-19T04:18:53.049Z,7.50
2023-05-19T04:19:26.493Z,7.60
2023-05-19T04:20:01.784Z,7.20
2023-05-19T04:20:35.295Z,7.50
2023-05-19T04:21:09.936Z,7.30
2023-05-19T04:21:44.973Z,6.70
2023-05-19T04:22:18.276Z,7.80
2023-05-19T04:22:51.715Z,8.10
2023-05-19T04:23:24.992Z,7.20
2023-05-19T04:24:00.213Z,7.90
2023-05-19T04:24:34.129Z,7.20
2023-05-19T04:25:07.840Z,7.30
2023-05-19T04:25:42.468Z,7.40
2023-05-19T04:26:16.539Z,7.30
2023-05-19T04:26:50.107Z,7.50
2023-05-19T04:27:23.968Z,7.20
2023-05-19T04:27:58.041Z,6.80
2023-05-19T04:28:31.438Z,6.80
2023-05-19T04:29:05.232Z,7.40
2023-05-19T04:29:40.261Z,7.30
2023-05-19T04:30:18.542Z,7.50
2023-05-19T04:30:52.566Z,6.80
2023-05-19T04:31:27.718Z,7.10
2023-05-19T04:32:01.226Z,7.70
2023-05-19T04:32:37.807Z,7.30
2023-05-19T04:33:11.886Z,7.50
2023-05-19T04:33:46.321Z,7.40
2023-05-19T04:34:20.246Z,7.70
2023-05-19T04:34:53.960Z,7.40
2023-05-19T04:35:30.215Z,7.40
2023-05-19T04:36:08.618Z,7.30
2023-05-19T04:36:42.412Z,7.70
2023-05-19T04:37:20.330Z,7.20
2023-05-19T04:37:55.849Z,8.10
2023-05-19T04:38:32.528Z,7.40
2023-05-19T04:39:12.339Z,7.10
2023-05-19T04:39:48.475Z,7.50
2023-05-19T04:40:23.995Z,7.70
2023-05-19T04:41:00.821Z,8.00
2023-05-19T04:41:34.937Z,7.20
2023-05-19T04:42:10.592Z,8.10
2023-05-19T04:42:46.181Z,7.90
2023-05-19T04:43:19.656Z,7.40
2023-05-19T04:43:53.514Z,7.70
2023-05-19T04:44:26.856Z,7.50
2023-05-19T04:45:00.166Z,7.50
2023-05-19T04:45:34.430Z,7.70
2023-05-19T04:46:13.450Z,7.90
2023-05-19T04:46:50.342Z,7.90
2023-05-19T04:47:28.349Z,7.80
2023-05-19T04:48:02.351Z,8.20
2023-05-19T04:48:36.091Z,8.20
2023-05-19T04:49:12.797Z,7.70
2023-05-19T04:49:46.167Z,7.90
2023-05-19T04:50:19.736Z,8.60
2023-05-19T04:50:53.337Z,8.40
2023-05-19T04:51:29.829Z,7.80
2023-05-19T04:52:11.082Z,7.80
2023-05-19T04:53:22.192Z,7.50
2023-05-19T04:53:56.311Z,7.20
2023-05-19T04:54:29.559Z,7.90
2023-05-19T04:55:03.019Z,7.90
2023-05-19T04:55:39.108Z,7.10
2023-05-19T04:56:15.877Z,8.40
2023-05-19T04:56:49.949Z,7.70
2023-05-19T04:57:23.409Z,7.40
2023-05-19T04:57:56.723Z,8.10
2023-05-19T04:58:30.423Z,7.70
2023-05-19T04:59:04.095Z,7.60
2023-05-19T04:59:38.279Z,7.90
2023-05-19T05:00:14.186Z,7.40
2023-05-19T05:01:01.215Z,8.20
2023-05-19T05:01:34.908Z,8.10
2023-05-19T05:02:08.340Z,8.00
2023-05-19T05:02:44.084Z,7.80
2023-05-19T05:03:18.030Z,7.50
2023-05-19T05:03:56.194Z,8.00
2023-05-19T05:04:29.684Z,7.60
2023-05-19T05:05:06.808Z,7.60
2023-05-19T05:05:40.695Z,8.00
2023-05-19T05:06:14.592Z,8.40
2023-05-19T05:06:48.917Z,8.10
2023-05-19T05:07:23.137Z,8.60
2023-05-19T05:07:57.767Z,8.50
2023-05-19T05:08:32.320Z,9.00
2023-05-19T05:09:05.597Z,8.20
2023-05-19T05:09:39.016Z,9.00
2023-05-19T05:10:13.221Z,8.40
2023-05-19T05:10:46.790Z,8.60
2023-05-19T05:11:20.814Z,8.50
2023-05-19T05:11:54.598Z,9.40
2023-05-19T05:12:28.336Z,9.10
2023-05-19T05:13:02.236Z,9.30
2023-05-19T05:13:36.869Z,8.90
2023-05-19T05:14:10.675Z,9.70
2023-05-19T05:14:44.585Z,9.00
2023-05-19T05:15:18.544Z,8.70
2023-05-19T05:15:52.636Z,8.90
2023-05-19T05:16:27.150Z,9.40
2023-05-19T05:17:01.714Z,9.20
2023-05-19T05:17:35.707Z,8.80
2023-05-19T05:18:09.563Z,9.10
2023-05-19T05:18:44.843Z,9.50
2023-05-19T05:19:19.197Z,9.30
2023-05-19T05:19:53.161Z,9.50
2023-05-19T05:20:27.508Z,9.40
2023-05-19T05:21:01.725Z,9.20
2023-05-19T05:21:35.872Z,9.30
2023-05-19T05:22:09.487Z,9.30
2023-05-19T05:22:45.982Z,9.40
2023-05-19T05:23:19.742Z,9.60
2023-05-19T05:23:54.281Z,9.00
2023-05-19T05:24:28.288Z,9.50
2023-05-19T05:25:05.286Z,9.30
2023-05-19T05:25:39.115Z,9.60
2023-05-19T05:26:23.384Z,9.20
2023-05-19T05:26:59.168Z,9.50
2023-05-19T05:27:32.924Z,9.10
2023-05-19T05:28:06.449Z,9.60
2023-05-19T05:28:41.740Z,9.00
2023-05-19T05:29:15.108Z,9.70
2023-05-19T05:29:48.467Z,9.50
2023-05-19T05:30:22.058Z,9.10
2023-05-19T05:30:57.603Z,9.10
2023-05-19T05:31:31.617Z,8.70
2023-05-19T05:32:05.480Z,9.00
2023-05-19T05:32:39.668Z,8.70
2023-05-19T05:33:18.583Z,8.70
2023-05-19T05:33:52.841Z,8.80
2023-05-19T05:34:28.709Z,8.50
2023-05-19T05:35:02.462Z,8.80
2023-05-19T05:35:37.717Z,8.70
2023-05-19T05:36:12.733Z,9.10
2023-05-19T05:36:46.055Z,9.10
2023-05-19T05:37:19.410Z,8.90
2023-05-19T05:37:52.737Z,9.20
2023-05-19T05:38:26.152Z,8.60
2023-05-19T05:38:59.778Z,8.70
2023-05-19T05:39:33.102Z,8.40
2023-05-19T05:40:07.451Z,9.20
2023-05-19T05:40:41.166Z,8.90
2023-05-19T05:41:16.304Z,9.00
2023-05-19T05:41:49.794Z,8.40
2023-05-19T05:42:23.143Z,8.60
2023-05-19T05:42:57.039Z,8.10
2023-05-19T05:43:30.762Z,8.30
2023-05-19T05:44:06.185Z,8.70
2023-05-19T05:44:39.674Z,8.40
2023-05-19T05:45:13.849Z,8.20
2023-05-19T05:45:47.397Z,8.20
2023-05-19T05:46:20.950Z,8.40
2023-05-19T05:46:54.613Z,8.70
2023-05-19T05:47:28.537Z,8.20
2023-05-19T05:48:02.365Z,8.20
2023-05-19T05:48:37.187Z,7.70
2023-05-19T05:49:12.772Z,8.50
2023-05-19T05:49:49.441Z,8.40
2023-05-19T05:50:23.534Z,8.80
2023-05-19T05:50:57.900Z,8.50
2023-05-19T05:51:33.983Z,8.60
2023-05-19T05:52:09.335Z,8.30
2023-05-19T05:52:48.730Z,8.50
2023-05-19T05:53:25.362Z,8.70
2023-05-19T05:54:01.037Z,7.90
2023-05-19T05:54:39.589Z,8.30
2023-05-19T05:55:14.321Z,8.50
2023-05-19T05:55:48.355Z,8.40
2023-05-19T05:56:22.344Z,8.20
2023-05-19T05:56:58.249Z,8.40
2023-05-19T05:57:31.755Z,7.90
2023-05-19T05:58:05.785Z,8.20
2023-05-19T05:58:40.893Z,8.20
2023-05-19T05:59:14.869Z,8.30
2023-05-19T05:59:48.374Z,7.20
2023-05-19T06:00:22.641Z,8.10
2023-05-19T06:00:58.215Z,6.50
2023-05-19T06:01:33.645Z,6.90
2023-05-19T06:02:08.847Z,6.70
2023-05-19T06:02:50.762Z,6.50
2023-05-19T06:03:26.341Z,7.10
2023-05-19T06:04:00.008Z,6.70
2023-05-19T06:04:33.433Z,6.60
2023-05-19T06:05:07.091Z,7.20
2023-05-19T06:05:40.845Z,7.20
2023-05-19T06:06:15.190Z,7.10
2023-05-19T06:06:48.574Z,6.80
2023-05-19T06:07:24.642Z,6.80
2023-05-19T06:07:58.084Z,7.30
2023-05-19T06:08:32.970Z,7.70
2023-05-19T06:09:06.474Z,7.10
2023-05-19T06:09:39.888Z,7.20
2023-05-19T06:10:13.968Z,7.80
2023-05-19T06:10:47.609Z,7.30
2023-05-19T06:11:22.130Z,7.20
2023-05-19T06:11:55.427Z,7.60
2023-05-19T06:12:29.010Z,7.80
2023-05-19T06:13:02.390Z,8.10
2023-05-19T06:13:36.652Z,7.20
2023-05-19T06:14:10.813Z,7.70
2023-05-19T06:15:12.944Z,7.50
2023-05-19T06:16:21.360Z,7.40
2023-05-19T06:16:54.950Z,7.60
2023-05-19T06:17:28.227Z,7.10
2023-05-19T06:18:01.844Z,6.80
2023-05-19T06:18:36.051Z,7.30
2023-05-19T06:19:10.167Z,6.90
2023-05-19T06:19:43.497Z,7.10
2023-05-19T06:20:16.827Z,7.20
2023-05-19T06:20:50.392Z,7.90
2023-05-19T06:21:23.772Z,6.80
2023-05-19T06:21:57.284Z,6.80
2023-05-19T06:22:31.093Z,7.20
2023-05-19T06:23:04.402Z,7.10
2023-05-19T06:23:37.764Z,6.50
2023-05-19T06:24:11.558Z,6.70
2023-05-19T06:24:44.914Z,6.70
2023-05-19T06:25:18.299Z,7.00
2023-05-19T06:25:51.667Z,6.70
2023-05-19T06:26:24.993Z,7.00
2023-05-19T06:26:58.321Z,6.80
2023-05-19T06:27:33.944Z,6.40
2023-05-19T06:28:08.384Z,6.50
2023-05-19T06:28:41.635Z,7.10
2023-05-19T06:29:15.020Z,6.70
2023-05-19T06:29:48.449Z,6.30
2023-05-19T06:30:21.828Z,6.90
2023-05-19T06:31:02.580Z,6.30
2023-05-19T06:31:49.403Z,7.10
2023-05-19T06:32:24.076Z,7.00
2023-05-19T06:32:57.581Z,7.00
2023-05-19T06:33:31.622Z,6.40
2023-05-19T06:34:04.956Z,6.70
2023-05-19T06:34:40.667Z,6.80
2023-05-19T06:35:14.250Z,7.10
2023-05-19T06:35:47.879Z,6.80
2023-05-19T06:36:21.890Z,6.60
2023-05-19T06:36:55.297Z,6.50
2023-05-19T06:37:28.872Z,6.30
2023-05-19T06:38:02.342Z,6.90
2023-05-19T06:38:36.598Z,6.30
2023-05-19T06:39:10.031Z,6.10
2023-05-19T06:39:43.673Z,6.30
2023-05-19T06:40:17.068Z,6.30
2023-05-19T06:40:50.686Z,6.10
2023-05-19T06:41:24.052Z,6.50
2023-05-19T06:41:57.572Z,6.70
2023-05-19T06:42:54.912Z,6.30
2023-05-19T06:43:37.488Z,6.40
2023-05-19T06:44:10.881Z,6.20
2023-05-19T06:44:44.166Z,6.10
2023-05-19T06:45:22.069Z,6.40
2023-05-19T06:45:56.754Z,6.80
2023-05-19T06:46:31.473Z,6.40
2023-05-19T06:47:05.135Z,6.50
2023-05-19T06:47:41.265Z,6.50
2023-05-19T06:48:14.904Z,6.40
2023-05-19T06:48:48.347Z,6.00
2023-05-19T06:49:22.111Z,6.30
2023-05-19T06:49:55.729Z,6.50
2023-05-19T06:50:31.852Z,6.40
2023-05-19T06:51:06.002Z,6.80
2023-05-19T06:51:39.524Z,6.40
2023-05-19T06:52:12.998Z,6.30
2023-05-19T06:52:47.395Z,6.50
2023-05-19T06:53:21.581Z,6.40
2023-05-19T06:53:55.888Z,6.70
2023-05-19T06:54:29.697Z,6.40
2023-05-19T06:55:03.411Z,6.30
2023-05-19T06:55:44.084Z,6.20
2023-05-19T06:56:29.316Z,6.10
2023-05-19T06:57:02.650Z,6.40
2023-05-19T06:57:36.408Z,5.30
2023-05-19T06:58:10.228Z,6.10
2023-05-19T06:58:43.953Z,6.20
2023-05-19T06:59:17.710Z,5.80
2023-05-19T06:59:51.161Z,6.40
2023-05-19T07:00:24.543Z,6.00
2023-05-19T07:00:58.733Z,6.40
2023-05-19T07:01:34.503Z,6.00
2023-05-19T07:02:08.657Z,6.30
2023-05-19T07:02:42.332Z,6.30
2023-05-19T07:03:15.810Z,6.30
2023-05-19T07:03:49.283Z,5.90
2023-05-19T07:04:22.640Z,6.10
2023-05-19T07:04:57.774Z,6.80
2023-05-19T07:05:31.427Z,5.90
2023-05-19T07:06:07.728Z,5.70
2023-05-19T07:06:41.716Z,6.40
2023-05-19T07:07:15.187Z,5.70
2023-05-19T07:07:48.669Z,6.00
2023-05-19T07:08:24.842Z,5.80
2023-05-19T07:08:58.391Z,6.00
2023-05-19T07:09:32.330Z,6.00
2023-05-19T07:10:06.614Z,5.70
2023-05-19T07:10:40.464Z,6.10
2023-05-19T07:11:16.125Z,5.60
2023-05-19T07:11:49.860Z,5.30
2023-05-19T07:12:23.282Z,5.70
2023-05-19T07:12:58.559Z,5.40
2023-05-19T07:13:33.819Z,5.60
2023-05-19T07:14:07.176Z,6.20
2023-05-19T07:14:40.584Z,5.60
2023-05-19T07:15:13.984Z,5.80
2023-05-19T07:15:49.187Z,5.60
2023-05-19T07:16:22.945Z,5.40
2023-05-19T07:16:56.358Z,6.10
2023-05-19T07:17:29.708Z,5.60
2023-05-19T07:18:03.078Z,4.70
2023-05-19T07:18:36.414Z,5.00
2023-05-19T07:19:09.828Z,5.20
2023-05-19T07:19:43.359Z,5.50
2023-05-19T07:20:16.830Z,5.40
2023-05-19T07:20:52.854Z,5.10
2023-05-19T07:21:26.928Z,5.10
2023-05-19T07:22:00.253Z,5.70
2023-05-19T07:22:36.465Z,5.00
2023-05-19T07:23:09.899Z,5.20
2023-05-19T07:23:43.296Z,4.80
2023-05-19T07:24:18.213Z,4.80
2023-05-19T07:24:52.014Z,4.70
2023-05-19T07:25:27.379Z,5.00
2023-05-19T07:26:01.477Z,5.00
2023-05-19T07:26:34.849Z,4.70
2023-05-19T07:27:08.411Z,4.70
2023-05-19T07:27:41.879Z,5.00
2023-05-19T07:28:15.245Z,4.60
2023-05-19T07:28:48.592Z,5.00
2023-05-19T07:29:21.943Z,4.60
2023-05-19T07:29:55.284Z,4.80
2023-05-19T07:30:29.123Z,4.60
2023-05-19T07:31:02.697Z,4.50
2023-05-19T07:31:35.988Z,4.80
2023-05-19T07:32:09.351Z,4.50
2023-05-19T07:32:42.729Z,4.20
2023-05-19T07:33:16.149Z,4.50
2023-05-19T07:33:50.351Z,4.50
2023-05-19T07:34:25.650Z,4.40
2023-05-19T07:34:59.037Z,4.40
2023-05-19T07:35:32.621Z,4.20
2023-05-19T07:36:08.047Z,3.80
2023-05-19T07:36:41.739Z,4.10
2023-05-19T07:37:16.197Z,4.10
2023-05-19T07:37:50.126Z,3.90
2023-05-19T07:38:23.463Z,3.80
2023-05-19T07:38:56.951Z,4.00
2023-05-19T07:39:32.450Z,4.00
2023-05-19T07:40:09.701Z,3.80
2023-05-19T07:40:43.096Z,3.80
2023-05-19T07:41:16.457Z,3.90
2023-05-19T07:41:53.104Z,4.00
2023-05-19T07:42:26.437Z,3.80
2023-05-19T07:43:00.059Z,3.90
2023-05-19T07:43:33.550Z,3.80
2023-05-19T07:44:08.081Z,3.80
2023-05-19T07:44:41.624Z,3.80
2023-05-19T07:45:15.179Z,3.40
2023-05-19T07:45:48.538Z,3.80
2023-05-19T07:46:22.575Z,3.50
2023-05-19T07:46:56.250Z,3.50
2023-05-19T07:47:31.075Z,3.40
2023-05-19T07:48:04.562Z,3.50
2023-05-19T07:48:38.264Z,3.50
2023-05-19T07:49:11.706Z,3.00
2023-05-19T07:49:45.245Z,3.40
2023-05-19T07:50:18.525Z,3.30
2023-05-19T07:50:53.030Z,3.20
2023-05-19T07:51:26.767Z,3.00
2023-05-19T07:52:00.298Z,3.60
2023-05-19T07:52:33.808Z,3.10
2023-05-19T07:53:07.209Z,3.40
2023-05-19T07:53:40.633Z,3.30
2023-05-19T07:54:14.086Z,3.00
2023-05-19T07:54:47.354Z,3.10
2023-05-19T07:55:23.365Z,3.00
2023-05-19T07:55:58.691Z,3.10
2023-05-19T07:56:32.310Z,2.90
2023-05-19T07:57:05.821Z,3.10
2023-05-19T07:57:39.090Z,2.90